• Join FlightAware (Why Join?)
  • Login
  • US Flag 
06:24PM EDT


 

Airport Tracker/Info


-or-


 

Live Flight TrackerFlight Track Log ✈ N125TV ✈ 09-Aug-2013 ✈ KSCD - KCQF

Flight Track Log - Related Links

Times and Time Zones

All times are in EDT time to prevent confusion due to time zone crossing. See the N125TV flight status page for this flight to view local times or setup timezone preferences in your user account.

Time Position Orientation Groundspeed Altitude Reporting Facility
EDT Latitude Longitude Course Direction KTS MPH feet Rate Location/Type
07:15PM 33.0978 -86.3819 205° Southwest 131 151 2,500  Level Atlanta Center
07:15PM 33.0808 -86.3914 205° Southwest 139 160 2,900 300 Climbing Atlanta Center
07:17PM 33.0287 -86.3833 180° South  Level FlightAware Approximate
07:24PM 32.7909 -86.5205 206° Southwest  Level FlightAware Approximate
07:25PM 32.7569 -86.5403 206° Southwest  Level FlightAware Approximate
07:26PM 32.7228 -86.5601 206° Southwest  Level FlightAware Approximate
07:27PM 32.6886 -86.5799 206° Southwest  Level FlightAware Approximate
07:28PM 32.6545 -86.5997 206° Southwest  Level FlightAware Approximate
07:29PM 32.6204 -86.6195 206° Southwest  Level FlightAware Approximate
07:30PM 32.5863 -86.6392 206° Southwest  Level FlightAware Approximate
07:31PM 32.5522 -86.6590 206° Southwest  Level FlightAware Approximate
07:31PM 32.4789 -86.7464 206° Southwest 165 190 8,000  Level Houston Center
07:32PM 32.5181 -86.6787 206° Southwest  Level FlightAware Approximate
07:32PM 32.4364 -86.7711 206° Southwest 169 194 8,000  Level Houston Center
07:33PM 32.4840 -86.6984 206° Southwest  Level FlightAware Approximate
07:33PM 32.3922 -86.7956 205° Southwest 171 197 8,000  Level Houston Center
07:34PM 32.4499 -86.7181 206° Southwest  Level FlightAware Approximate
07:34PM 32.3497 -86.8208 207° Southwest 172 198 8,000  Level Houston Center
07:35PM 32.4157 -86.7378 206° Southwest  Level FlightAware Approximate
07:35PM 32.2961 -86.8500 205° Southwest 174 200 8,000  Level Houston Center
07:36PM 32.3816 -86.7574 206° Southwest  Level FlightAware Approximate
07:36PM 32.2483 -86.8728 202° Southwest 188 216 8,000  Level Atlanta Center
07:37PM 32.2042 -86.8961 204° Southwest 188 216 8,000  Level Atlanta Center
07:38PM 32.1597 -86.9217 206° Southwest 183 211 8,000  Level Atlanta Center
07:39PM 32.1172 -86.9472 207° Southwest 183 211 8,000  Level Atlanta Center
07:40PM 32.0750 -86.9678 202° Southwest 178 205 8,000  Level Atlanta Center
07:41PM 32.0328 -86.9933 207° Southwest 178 205 8,000  Level Atlanta Center
07:42PM 31.9903 -87.0189 207° Southwest 178 205 8,000  Level Atlanta Center
07:43PM 31.9461 -87.0419 204° Southwest 178 205 8,000  Level Atlanta Center
07:44PM 31.9058 -87.0650 206° Southwest 178 205 8,000  Level Atlanta Center
07:45PM 31.8633 -87.0931 209° Southwest 178 205 8,000  Level Atlanta Center
07:46PM 31.8211 -87.1161 205° Southwest 178 205 8,000  Level Atlanta Center
07:47PM 31.7747 -87.1364 200° South 178 205 8,000  Level Atlanta Center
07:48PM 31.7342 -87.1667 212° Southwest 178 205 8,000  Level Atlanta Center
07:49PM 31.6878 -87.1894 203° Southwest 178 205 8,000  Level Atlanta Center
07:50PM 31.6431 -87.2222 212° Southwest 178 205 8,000  Level Atlanta Center
07:51PM 31.5811 -87.2531 203° Southwest 174 200 8,000  Level Houston Center
07:52PM 31.5389 -87.2792 208° Southwest 172 198 8,000  Level Houston Center
07:53PM 31.4928 -87.3025 203° Southwest 175 201 8,000  Level Houston Center
07:54PM 31.4467 -87.3264 204° Southwest 178 205 8,000  Level Houston Center
07:55PM 31.4014 -87.3506 204° Southwest 178 205 8,000  Level Houston Center
07:56PM 31.3489 -87.3803 206° Southwest 176 203 8,000  Level Houston Center
07:57PM 31.3061 -87.4050 206° Southwest 174 200 8,000  Level Houston Center
07:58PM 31.2622 -87.4289 205° Southwest 172 198 8,000  Level Houston Center
08:00PM 31.2014 -87.4642 206° Southwest 173 199 8,000  Level Houston Center
08:01PM 31.1569 -87.4881 205° Southwest 174 200 8,000  Level Houston Center
08:02PM 31.1128 -87.5133 206° Southwest 176 203 8,000  Level Houston Center
08:03PM 31.0686 -87.5383 206° Southwest 176 203 8,000  Level Houston Center
08:04PM 31.0156 -87.5678 205° Southwest 175 201 8,000 -300 Level Houston Center
08:05PM 30.9686 -87.5933 205° Southwest 184 212 7,400 -420 Descending Houston Center
08:06PM 30.9214 -87.6206 206° Southwest 188 216 7,200 -600 Descending Houston Center
08:07PM 30.8736 -87.6483 207° Southwest 190 219 6,200 -900 Descending Houston Center
08:08PM 30.8267 -87.6714 203° Southwest 186 214 5,400 -840 Descending Houston Center
08:09PM 30.7844 -87.7008 211° Southwest 181 208 4,500 -960 Descending Houston Center
08:10PM 30.7444 -87.7344 216° Southwest 179 206 3,500 -900 Descending Houston Center
08:11PM 30.7114 -87.7703 223° Southwest 172 198 2,700 -300 Descending Houston Center
08:12PM 30.6739 -87.8067 220° Southwest 158 182 3,000 120 Climbing Houston Center
08:13PM 30.6386 -87.8403 219° Southwest 158 182 3,000 -180 Level Houston Center
08:14PM 30.6050 -87.8531 198° South 137 158 2,700 -420 Descending Houston Center
08:15PM 30.5772 -87.8489 173° South 127 146 2,200 -540 Descending Houston Center